createdAt,value
2018-09-12T04:00:39.009Z,0.00
2018-09-12T04:01:38.961Z,0.00
2018-09-12T04:02:38.993Z,0.00
2018-09-12T04:03:38.953Z,0.00
2018-09-12T04:04:38.954Z,0.00
2018-09-12T04:05:38.923Z,0.00
2018-09-12T04:06:38.928Z,0.00
2018-09-12T04:07:38.899Z,0.00
2018-09-12T04:08:38.896Z,0.00
2018-09-12T04:09:38.911Z,0.00
2018-09-12T04:10:38.869Z,0.00
2018-09-12T04:11:38.844Z,0.00
2018-09-12T04:12:38.831Z,0.00
2018-09-12T04:13:38.827Z,0.00
2018-09-12T04:14:38.823Z,0.00
2018-09-12T04:15:38.797Z,0.00
2018-09-12T04:16:38.836Z,0.00
2018-09-12T04:17:38.777Z,0.00
2018-09-12T04:18:38.767Z,0.00
2018-09-12T04:19:38.764Z,0.00
2018-09-12T04:20:38.751Z,0.00
2018-09-12T04:21:38.730Z,0.00
2018-09-12T04:22:38.726Z,0.00
2018-09-12T04:23:38.708Z,0.00
2018-09-12T04:24:38.719Z,0.00
2018-09-12T04:25:38.692Z,0.00
2018-09-12T04:26:38.679Z,0.00
2018-09-12T04:27:38.667Z,0.00
2018-09-12T04:28:38.651Z,0.00
2018-09-12T04:29:38.672Z,0.00
2018-09-12T04:30:38.630Z,0.00
2018-09-12T04:31:38.617Z,0.00
2018-09-12T04:32:38.607Z,0.00
2018-09-12T04:33:38.596Z,0.00
2018-09-12T04:34:38.605Z,0.00
2018-09-12T04:35:38.580Z,0.00
2018-09-12T04:36:38.562Z,0.00
2018-09-12T04:37:38.590Z,0.00
2018-09-12T04:38:38.560Z,0.00
2018-09-12T04:39:38.538Z,0.00
2018-09-12T04:40:38.516Z,0.00
2018-09-12T04:41:38.508Z,0.00
2018-09-12T04:42:38.549Z,0.00
2018-09-12T04:43:38.485Z,0.00
2018-09-12T04:44:38.483Z,0.00
2018-09-12T04:45:38.465Z,0.00
2018-09-12T04:46:38.463Z,0.00
2018-09-12T04:47:38.440Z,5.62
2018-09-12T04:48:38.525Z,5.62
2018-09-12T04:49:38.427Z,5.62
2018-09-12T04:50:38.410Z,5.62
2018-09-12T04:51:38.397Z,5.62
2018-09-12T04:52:38.383Z,5.62
2018-09-12T04:53:38.383Z,5.62
2018-09-12T04:54:38.396Z,5.62
2018-09-12T04:55:38.347Z,5.62
2018-09-12T04:56:38.338Z,5.62
2018-09-12T04:57:38.327Z,5.62
2018-09-12T04:58:38.317Z,11.25
2018-09-12T04:59:38.367Z,11.25
2018-09-12T05:00:38.302Z,11.25
2018-09-12T05:01:38.313Z,11.25
2018-09-12T05:02:38.270Z,11.25
2018-09-12T05:03:38.259Z,11.25
2018-09-12T05:04:38.248Z,11.25
2018-09-12T05:05:38.249Z,11.25
2018-09-12T05:06:38.228Z,11.25
2018-09-12T05:07:38.217Z,16.88
2018-09-12T05:08:38.204Z,16.88
2018-09-12T05:09:38.189Z,16.88
2018-09-12T05:10:38.192Z,16.88
2018-09-12T05:11:38.175Z,16.88
2018-09-12T05:12:38.156Z,16.88
2018-09-12T05:13:38.150Z,16.88
2018-09-12T05:14:38.135Z,16.88
2018-09-12T05:15:38.136Z,22.50
2018-09-12T05:16:38.197Z,22.50
2018-09-12T05:17:38.105Z,22.50
2018-09-12T05:18:38.089Z,22.50
2018-09-12T05:19:38.078Z,22.50
2018-09-12T05:20:38.082Z,22.50
2018-09-12T05:21:38.055Z,22.50
2018-09-12T05:22:38.053Z,22.50
2018-09-12T05:23:38.032Z,22.50
2018-09-12T05:24:38.023Z,28.12
2018-09-12T05:25:38.019Z,28.12
2018-09-12T05:26:37.996Z,28.12
2018-09-12T05:27:37.986Z,28.12
2018-09-12T05:28:38.002Z,28.12
2018-09-12T05:29:37.968Z,28.12
2018-09-12T05:30:37.964Z,28.12
2018-09-12T05:31:37.952Z,28.12
2018-09-12T05:32:37.933Z,28.12
2018-09-12T05:33:37.919Z,33.75
2018-09-12T05:34:37.910Z,33.75
2018-09-12T05:35:37.907Z,33.75
2018-09-12T05:36:37.883Z,33.75
2018-09-12T05:37:37.875Z,33.75
2018-09-12T05:38:37.864Z,33.75
2018-09-12T05:39:37.852Z,33.75
2018-09-12T05:40:37.864Z,33.75
2018-09-12T05:41:37.833Z,33.75
2018-09-12T05:42:37.820Z,33.75
2018-09-12T05:43:37.812Z,39.38
2018-09-12T05:44:37.799Z,39.38
2018-09-12T05:45:37.795Z,39.38
2018-09-12T05:46:37.788Z,39.38
2018-09-12T05:47:37.768Z,39.38
2018-09-12T05:48:37.755Z,39.38
2018-09-12T05:49:37.742Z,39.38
2018-09-12T05:50:37.788Z,39.38
2018-09-12T05:51:37.717Z,39.38
2018-09-12T05:52:37.705Z,39.38
2018-09-12T05:53:37.693Z,45.00
2018-09-12T05:54:37.692Z,45.00
2018-09-12T05:55:37.686Z,45.00
2018-09-12T05:56:37.665Z,45.00
2018-09-12T05:57:37.647Z,45.00
2018-09-12T05:58:37.637Z,45.00
2018-09-12T05:59:37.627Z,45.00
2018-09-12T06:00:37.634Z,45.00
2018-09-12T06:01:37.605Z,45.00
2018-09-12T06:02:37.604Z,45.00
2018-09-12T06:03:37.582Z,50.62
2018-09-12T06:04:37.582Z,50.62
2018-09-12T06:05:37.581Z,50.62
2018-09-12T06:06:37.555Z,50.62
2018-09-12T06:07:37.538Z,50.62
2018-09-12T06:08:37.535Z,50.62
2018-09-12T06:09:37.521Z,50.62
2018-09-12T06:10:37.519Z,50.62
2018-09-12T06:11:37.495Z,50.62
2018-09-12T06:12:37.489Z,50.62
2018-09-12T06:13:37.469Z,50.62
2018-09-12T06:14:37.458Z,50.62
2018-09-12T06:15:37.462Z,56.25
2018-09-12T06:16:37.438Z,56.25
2018-09-12T06:17:37.424Z,56.25
2018-09-12T06:18:37.412Z,56.25
2018-09-12T06:19:37.414Z,56.25
2018-09-12T06:20:37.411Z,56.25
2018-09-12T06:21:37.379Z,56.25
2018-09-12T06:22:37.375Z,56.25
2018-09-12T06:23:37.359Z,56.25
2018-09-12T06:24:37.366Z,56.25
2018-09-12T06:25:37.353Z,56.25
2018-09-12T06:26:37.326Z,61.88
2018-09-12T06:27:37.311Z,61.88
2018-09-12T06:28:37.307Z,61.88
2018-09-12T06:29:37.291Z,61.88
2018-09-12T06:30:37.303Z,61.88
2018-09-12T06:31:37.273Z,61.88
2018-09-12T06:32:37.282Z,61.88
2018-09-12T06:33:37.252Z,61.88
2018-09-12T06:34:37.237Z,61.88
2018-09-12T06:35:37.235Z,61.88
2018-09-12T06:36:37.212Z,61.88
2018-09-12T06:37:37.203Z,67.50
2018-09-12T06:38:37.219Z,67.50
2018-09-12T06:39:37.177Z,67.50
2018-09-12T06:40:37.197Z,67.50
2018-09-12T06:41:37.181Z,67.50
2018-09-12T06:42:37.154Z,67.50
2018-09-12T06:43:37.133Z,78.75
2018-09-12T06:44:37.170Z,112.50
2018-09-12T06:45:37.170Z,180.00
2018-09-12T06:46:37.099Z,236.25
2018-09-12T06:47:37.102Z,258.75
2018-09-12T06:48:37.093Z,258.75
2018-09-12T06:49:37.088Z,264.38
2018-09-12T06:50:37.088Z,264.38
2018-09-12T06:51:37.051Z,264.38
2018-09-12T06:52:37.036Z,264.38
2018-09-12T06:53:37.020Z,264.38
2018-09-12T06:54:37.038Z,270.00
2018-09-12T06:55:37.050Z,270.00
2018-09-12T06:56:36.990Z,270.00
2018-09-12T06:57:36.988Z,270.00
2018-09-12T06:58:36.967Z,275.62
2018-09-12T06:59:36.984Z,281.25
2018-09-12T07:00:37.008Z,281.25
2018-09-12T07:01:36.956Z,286.88
2018-09-12T07:02:36.921Z,286.88
2018-09-12T07:03:36.908Z,286.88
2018-09-12T07:04:36.899Z,292.50
2018-09-12T07:05:36.887Z,292.50
2018-09-12T07:06:36.887Z,292.50
2018-09-12T07:07:36.873Z,298.12
2018-09-12T07:08:36.859Z,298.12
2018-09-12T07:09:36.840Z,298.12
2018-09-12T07:10:36.829Z,298.12
2018-09-12T07:11:36.833Z,303.75
2018-09-12T07:12:36.817Z,303.75
2018-09-12T07:13:36.794Z,309.38
2018-09-12T07:14:36.785Z,309.38
2018-09-12T07:15:36.775Z,315.00
2018-09-12T07:16:36.805Z,315.00
2018-09-12T07:17:36.758Z,320.62
2018-09-12T07:18:36.740Z,320.62
2018-09-12T07:19:36.731Z,320.62
2018-09-12T07:20:36.720Z,326.25
2018-09-12T07:21:36.737Z,326.25
2018-09-12T07:22:36.714Z,326.25
2018-09-12T07:23:36.688Z,326.25
2018-09-12T07:24:36.872Z,326.25
2018-09-12T07:25:36.659Z,331.88
2018-09-12T07:26:36.663Z,331.88
2018-09-12T07:27:36.659Z,331.88
2018-09-12T07:28:36.635Z,331.88
2018-09-12T07:29:36.628Z,331.88
2018-09-12T07:30:36.674Z,331.88
2018-09-12T07:31:36.610Z,331.88
2018-09-12T07:32:36.589Z,331.88
2018-09-12T07:33:36.585Z,337.50
2018-09-12T07:34:36.559Z,337.50
2018-09-12T07:35:36.547Z,343.12
2018-09-12T07:36:36.566Z,343.12
2018-09-12T07:37:36.540Z,348.75
2018-09-12T07:38:36.514Z,354.38
2018-09-12T07:39:36.516Z,360.00
2018-09-12T07:40:36.502Z,365.62
2018-09-12T07:41:36.509Z,365.62
2018-09-12T07:42:36.475Z,365.62
2018-09-12T07:43:36.455Z,365.62
2018-09-12T07:44:36.447Z,371.25
2018-09-12T07:45:36.440Z,376.88
2018-09-12T07:46:36.442Z,376.88
2018-09-12T07:47:36.410Z,382.50
2018-09-12T07:48:36.403Z,382.50
2018-09-12T07:49:36.400Z,382.50
2018-09-12T07:50:36.386Z,388.12
2018-09-12T07:51:36.380Z,388.12
2018-09-12T07:52:36.357Z,393.75
2018-09-12T07:53:36.358Z,393.75
2018-09-12T07:54:36.336Z,399.38
2018-09-12T07:55:36.328Z,399.38
2018-09-12T07:56:36.335Z,399.38
2018-09-12T07:57:36.305Z,410.62
2018-09-12T07:58:36.305Z,410.62
2018-09-12T07:59:36.287Z,405.00
2018-09-12T08:00:36.277Z,416.25
2018-09-12T08:01:36.279Z,421.88
2018-09-12T08:02:36.251Z,427.50
2018-09-12T08:03:36.234Z,427.50
2018-09-12T08:04:36.226Z,427.50
2018-09-12T08:05:36.210Z,421.88
2018-09-12T08:06:36.230Z,421.88
2018-09-12T08:07:36.195Z,421.88
2018-09-12T08:08:36.193Z,421.88
2018-09-12T08:09:36.168Z,427.50
2018-09-12T08:10:36.164Z,478.12
2018-09-12T08:11:36.164Z,596.25
2018-09-12T08:12:36.135Z,680.62
2018-09-12T08:13:36.126Z,720.00
2018-09-12T08:14:36.117Z,736.88
2018-09-12T08:15:36.106Z,765.00
2018-09-12T08:16:36.100Z,781.88
2018-09-12T08:17:36.081Z,798.75
2018-09-12T08:18:36.069Z,815.62
2018-09-12T08:19:36.053Z,810.00
2018-09-12T08:20:36.041Z,798.75
2018-09-12T08:21:36.047Z,826.88
2018-09-12T08:22:36.026Z,883.12
2018-09-12T08:23:36.019Z,877.50
2018-09-12T08:24:36.005Z,843.75
2018-09-12T08:25:35.996Z,866.25
2018-09-12T08:26:36.024Z,945.00
2018-09-12T08:27:35.968Z,961.88
2018-09-12T08:28:35.955Z,967.50
2018-09-12T08:29:35.952Z,1046.25
2018-09-12T08:30:35.932Z,1231.88
2018-09-12T08:31:35.944Z,1648.12
2018-09-12T08:32:35.916Z,2199.38
2018-09-12T08:33:35.902Z,2441.25
2018-09-12T08:34:35.887Z,2418.75
2018-09-12T08:35:35.889Z,2413.12
2018-09-12T08:36:35.988Z,2379.38
2018-09-12T08:37:35.853Z,2323.12
2018-09-12T08:38:35.848Z,2261.25
2018-09-12T08:39:35.833Z,2261.25
2018-09-12T08:40:35.830Z,2182.50
2018-09-12T08:41:35.831Z,1687.50
2018-09-12T08:42:35.829Z,1085.62
2018-09-12T08:43:35.788Z,1248.75
2018-09-12T08:44:35.776Z,1749.38
2018-09-12T08:45:35.770Z,1693.12
2018-09-12T08:46:35.776Z,1524.38
2018-09-12T08:47:35.746Z,1451.25
2018-09-12T08:48:35.738Z,1676.25
2018-09-12T08:49:35.724Z,1777.50
2018-09-12T08:50:35.716Z,1260.00
2018-09-12T08:51:35.730Z,815.62
2018-09-12T08:52:35.694Z,922.50
2018-09-12T08:53:35.688Z,1260.00
2018-09-12T08:54:35.668Z,1766.25
2018-09-12T08:55:35.656Z,1670.62
2018-09-12T08:56:35.661Z,1321.88
2018-09-12T08:57:35.639Z,1305.00
2018-09-12T08:58:35.631Z,1344.38
2018-09-12T08:59:35.617Z,1299.38
2018-09-12T09:00:35.604Z,967.50
2018-09-12T09:01:35.657Z,562.50
2018-09-12T09:02:35.586Z,489.38
2018-09-12T09:03:35.569Z,483.75
2018-09-12T09:04:35.572Z,478.12
2018-09-12T09:05:35.546Z,495.00
2018-09-12T09:06:35.529Z,506.25
2018-09-12T09:07:35.556Z,590.62
2018-09-12T09:08:35.505Z,1029.38
2018-09-12T09:09:35.504Z,2497.50
2018-09-12T09:10:35.561Z,2548.12
2018-09-12T09:11:35.482Z,2598.75
2018-09-12T09:12:35.477Z,2581.88
2018-09-12T09:13:35.452Z,1929.38
2018-09-12T09:14:35.443Z,1074.38
2018-09-12T09:15:35.432Z,1170.00
2018-09-12T09:16:35.418Z,2131.88
2018-09-12T09:17:35.425Z,2025.00
2018-09-12T09:18:35.401Z,843.75
2018-09-12T09:19:35.391Z,517.50
2018-09-12T09:20:35.386Z,495.00
2018-09-12T09:21:35.364Z,483.75
2018-09-12T09:22:35.375Z,455.62
2018-09-12T09:23:35.355Z,427.50
2018-09-12T09:24:35.332Z,410.62
2018-09-12T09:25:35.356Z,399.38
2018-09-12T09:26:35.309Z,393.75
2018-09-12T09:27:35.324Z,393.75
2018-09-12T09:28:35.282Z,388.12
2018-09-12T09:29:35.275Z,376.88
2018-09-12T09:30:35.259Z,371.25
2018-09-12T09:31:35.250Z,371.25
2018-09-12T09:32:35.269Z,365.62
2018-09-12T09:33:35.237Z,382.50
2018-09-12T09:34:35.214Z,427.50
2018-09-12T09:35:35.339Z,956.25
2018-09-12T09:36:35.201Z,1861.88
2018-09-12T09:37:35.198Z,1417.50
2018-09-12T09:38:35.178Z,534.38
2018-09-12T09:39:35.176Z,303.75
2018-09-12T09:40:35.146Z,264.38
2018-09-12T09:41:35.142Z,236.25
2018-09-12T09:42:35.148Z,208.12
2018-09-12T09:43:35.127Z,180.00
2018-09-12T09:44:35.173Z,168.75
2018-09-12T09:45:35.101Z,151.88
2018-09-12T09:46:35.085Z,146.25
2018-09-12T09:47:35.098Z,135.00
2018-09-12T09:48:35.066Z,135.00
2018-09-12T09:49:35.045Z,129.38
2018-09-12T09:50:35.038Z,135.00
2018-09-12T09:51:35.031Z,135.00
2018-09-12T09:52:35.041Z,129.38
2018-09-12T09:53:35.003Z,129.38
2018-09-12T09:54:35.038Z,129.38
2018-09-12T09:55:34.987Z,123.75
2018-09-12T09:56:34.974Z,123.75
2018-09-12T09:57:34.977Z,118.12
2018-09-12T09:58:34.945Z,118.12
2018-09-12T09:59:34.955Z,118.12
2018-09-12T10:00:34.933Z,112.50
2018-09-12T10:01:34.938Z,118.12
2018-09-12T10:02:34.917Z,118.12
2018-09-12T10:03:34.899Z,118.12
2018-09-12T10:04:34.886Z,118.12
2018-09-12T10:05:34.882Z,118.12
2018-09-12T10:06:34.873Z,118.12
2018-09-12T10:07:34.869Z,123.75
2018-09-12T10:08:34.838Z,123.75
2018-09-12T10:09:34.826Z,118.12
2018-09-12T10:10:34.816Z,118.12
2018-09-12T10:11:34.801Z,118.12
2018-09-12T10:12:34.805Z,118.12
2018-09-12T10:13:34.786Z,123.75
2018-09-12T10:14:34.770Z,118.12
2018-09-12T10:15:34.759Z,118.12
2018-09-12T10:16:34.757Z,118.12
2018-09-12T10:17:34.804Z,118.12
2018-09-12T10:18:34.725Z,118.12
2018-09-12T10:19:34.714Z,118.12
2018-09-12T10:20:34.704Z,118.12
2018-09-12T10:21:34.701Z,118.12
2018-09-12T10:22:34.698Z,118.12
2018-09-12T10:23:34.663Z,118.12
2018-09-12T10:24:34.663Z,118.12
2018-09-12T10:25:34.655Z,118.12
2018-09-12T10:26:34.635Z,118.12
2018-09-12T10:27:34.639Z,112.50
2018-09-12T10:28:34.618Z,118.12
2018-09-12T10:29:34.597Z,118.12
2018-09-12T10:30:34.596Z,118.12
2018-09-12T10:31:34.580Z,118.12
2018-09-12T10:32:34.591Z,118.12
2018-09-12T10:33:34.558Z,118.12
2018-09-12T10:34:34.544Z,118.12
2018-09-12T10:35:34.537Z,118.12
2018-09-12T10:36:34.548Z,118.12
2018-09-12T10:37:34.535Z,118.12
2018-09-12T10:38:34.498Z,118.12
2018-09-12T10:39:34.527Z,118.12
2018-09-12T10:40:34.497Z,118.12
2018-09-12T10:41:34.466Z,118.12
2018-09-12T10:42:34.460Z,118.12
2018-09-12T10:43:34.460Z,118.12
2018-09-12T10:44:34.442Z,118.12
2018-09-12T10:45:34.430Z,118.12
2018-09-12T10:46:34.415Z,118.12
2018-09-12T10:47:34.409Z,112.50
2018-09-12T10:48:34.412Z,112.50
2018-09-12T10:49:34.380Z,112.50
2018-09-12T10:50:34.371Z,118.12
2018-09-12T10:51:34.359Z,118.12
2018-09-12T10:52:34.353Z,112.50
2018-09-12T10:53:34.346Z,112.50
2018-09-12T10:54:34.332Z,112.50
2018-09-12T10:55:34.315Z,123.75
2018-09-12T10:56:34.381Z,118.12
2018-09-12T10:57:34.296Z,112.50
2018-09-12T10:58:34.356Z,112.50
2018-09-12T10:59:34.284Z,112.50
2018-09-12T11:00:34.260Z,112.50
2018-09-12T11:01:34.247Z,112.50
2018-09-12T11:02:34.239Z,112.50
2018-09-12T11:03:34.240Z,112.50
2018-09-12T11:04:34.213Z,112.50
2018-09-12T11:05:34.198Z,112.50
2018-09-12T11:06:34.193Z,112.50
2018-09-12T11:07:34.178Z,112.50
2018-09-12T11:08:34.183Z,112.50
2018-09-12T11:09:34.157Z,112.50
2018-09-12T11:10:34.152Z,112.50
2018-09-12T11:11:34.137Z,112.50
2018-09-12T11:12:34.125Z,112.50
2018-09-12T11:13:34.138Z,112.50
2018-09-12T11:14:34.102Z,112.50
2018-09-12T11:15:34.092Z,112.50
2018-09-12T11:16:34.082Z,112.50
2018-09-12T11:17:34.064Z,112.50
2018-09-12T11:18:34.070Z,112.50
2018-09-12T11:19:34.042Z,112.50
2018-09-12T11:20:34.037Z,106.88
2018-09-12T11:21:34.023Z,112.50
2018-09-12T11:22:34.013Z,106.88
2018-09-12T11:23:34.012Z,106.88
2018-09-12T11:24:33.988Z,106.88
2018-09-12T11:25:33.981Z,106.88
2018-09-12T11:26:33.962Z,106.88
2018-09-12T11:27:33.962Z,106.88
2018-09-12T11:28:33.971Z,106.88
2018-09-12T11:29:33.934Z,112.50
2018-09-12T11:30:33.921Z,106.88
2018-09-12T11:31:33.911Z,106.88
2018-09-12T11:32:33.896Z,106.88
2018-09-12T11:33:33.905Z,106.88
2018-09-12T11:34:33.883Z,106.88
2018-09-12T11:35:33.868Z,106.88
2018-09-12T11:36:33.853Z,106.88
2018-09-12T11:37:33.842Z,106.88
2018-09-12T11:38:33.854Z,106.88
2018-09-12T11:39:33.827Z,106.88
2018-09-12T11:40:33.807Z,106.88
2018-09-12T11:41:33.810Z,106.88
2018-09-12T11:42:33.785Z,106.88
2018-09-12T11:43:33.799Z,106.88
2018-09-12T11:44:33.766Z,106.88
2018-09-12T11:45:33.767Z,101.25
2018-09-12T11:46:33.741Z,101.25
2018-09-12T11:47:33.731Z,101.25
2018-09-12T11:48:33.737Z,101.25
2018-09-12T11:49:33.719Z,101.25
2018-09-12T11:50:33.700Z,101.25
2018-09-12T11:51:33.696Z,101.25
2018-09-12T11:52:33.694Z,101.25
2018-09-12T11:53:33.679Z,101.25
2018-09-12T11:54:33.650Z,101.25
2018-09-12T11:55:33.719Z,101.25
2018-09-12T11:56:33.632Z,101.25
2018-09-12T11:57:33.631Z,101.25
2018-09-12T11:58:33.630Z,101.25
2018-09-12T11:59:33.604Z,101.25
2018-09-12T12:00:33.587Z,101.25
2018-09-12T12:01:33.588Z,101.25
2018-09-12T12:02:33.566Z,101.25
2018-09-12T12:03:33.573Z,101.25
2018-09-12T12:04:33.545Z,101.25
2018-09-12T12:05:33.533Z,101.25
2018-09-12T12:06:33.520Z,101.25
2018-09-12T12:07:33.522Z,101.25
2018-09-12T12:08:33.512Z,101.25
2018-09-12T12:09:33.501Z,101.25
2018-09-12T12:10:33.479Z,101.25
2018-09-12T12:11:33.467Z,101.25
2018-09-12T12:12:33.457Z,101.25
2018-09-12T12:13:33.474Z,101.25
2018-09-12T12:14:33.441Z,101.25
2018-09-12T12:15:33.420Z,101.25
2018-09-12T12:16:33.452Z,95.62
2018-09-12T12:17:33.398Z,95.62
2018-09-12T12:18:33.413Z,95.62
2018-09-12T12:19:33.380Z,95.62
2018-09-12T12:20:33.364Z,95.62
2018-09-12T12:21:33.356Z,95.62
2018-09-12T12:22:33.343Z,95.62
2018-09-12T12:23:33.360Z,95.62
2018-09-12T12:24:33.325Z,95.62
2018-09-12T12:25:33.322Z,95.62
2018-09-12T12:26:33.301Z,95.62
2018-09-12T12:27:33.290Z,95.62
2018-09-12T12:28:33.291Z,95.62
2018-09-12T12:29:33.265Z,95.62
2018-09-12T12:30:33.258Z,95.62
2018-09-12T12:31:33.245Z,90.00
2018-09-12T12:32:33.237Z,90.00
2018-09-12T12:33:33.240Z,90.00
2018-09-12T12:34:33.216Z,90.00
2018-09-12T12:35:33.300Z,90.00
2018-09-12T12:36:33.185Z,95.62
2018-09-12T12:37:33.173Z,95.62
2018-09-12T12:38:33.184Z,90.00
2018-09-12T12:39:33.163Z,90.00
2018-09-12T12:40:33.145Z,90.00
2018-09-12T12:41:33.134Z,90.00
2018-09-12T12:42:33.118Z,90.00
2018-09-12T12:43:33.142Z,90.00
2018-09-12T12:44:33.100Z,90.00
2018-09-12T12:45:33.095Z,90.00
2018-09-12T12:46:33.077Z,90.00
2018-09-12T12:47:33.066Z,84.38
2018-09-12T12:48:33.051Z,84.38
2018-09-12T12:49:33.065Z,84.38
2018-09-12T12:50:33.039Z,84.38
2018-09-12T12:51:33.034Z,84.38
2018-09-12T12:52:33.012Z,84.38
2018-09-12T12:53:33.003Z,84.38
2018-09-12T12:54:33.063Z,84.38
2018-09-12T12:55:32.997Z,84.38
2018-09-12T12:56:32.967Z,84.38
2018-09-12T12:57:32.952Z,84.38
2018-09-12T12:58:32.954Z,84.38
2018-09-12T12:59:32.968Z,84.38
2018-09-12T13:00:32.922Z,84.38
2018-09-12T13:01:32.907Z,84.38
2018-09-12T13:02:32.901Z,84.38
2018-09-12T13:03:32.890Z,84.38
2018-09-12T13:04:32.888Z,84.38
2018-09-12T13:05:32.923Z,78.75
2018-09-12T13:06:32.904Z,78.75
2018-09-12T13:07:32.859Z,78.75
2018-09-12T13:08:32.831Z,78.75
2018-09-12T13:09:33.433Z,78.75
2018-09-12T13:10:32.924Z,78.75
2018-09-12T13:11:33.204Z,78.75
2018-09-12T13:12:33.473Z,78.75
2018-09-12T13:13:32.770Z,78.75
2018-09-12T13:14:33.245Z,78.75
2018-09-12T13:15:32.755Z,78.75
2018-09-12T13:16:32.740Z,78.75
2018-09-12T13:17:32.729Z,78.75
2018-09-12T13:18:32.726Z,78.75
2018-09-12T13:19:32.721Z,78.75
2018-09-12T13:20:32.698Z,78.75
2018-09-12T13:21:32.818Z,78.75
2018-09-12T13:22:32.671Z,73.12
2018-09-12T13:23:32.665Z,78.75
2018-09-12T13:24:32.659Z,73.12
2018-09-12T13:25:32.640Z,73.12
2018-09-12T13:26:32.630Z,73.12
2018-09-12T13:27:32.681Z,73.12
2018-09-12T13:28:32.606Z,73.12
2018-09-12T13:29:32.614Z,73.12
2018-09-12T13:30:32.587Z,73.12
2018-09-12T13:31:32.575Z,73.12
2018-09-12T13:32:32.562Z,73.12
2018-09-12T13:33:32.552Z,73.12
2018-09-12T13:34:32.559Z,73.12
2018-09-12T13:35:32.535Z,73.12
2018-09-12T13:36:32.515Z,73.12
2018-09-12T13:37:32.509Z,73.12
2018-09-12T13:38:32.493Z,73.12
2018-09-12T13:39:32.496Z,73.12
2018-09-12T13:40:32.472Z,73.12
2018-09-12T13:41:32.462Z,73.12
2018-09-12T13:42:32.449Z,73.12
2018-09-12T13:43:32.438Z,73.12
2018-09-12T13:44:32.554Z,73.12
2018-09-12T13:45:32.416Z,67.50
2018-09-12T13:46:32.404Z,67.50
2018-09-12T13:47:32.395Z,73.12
2018-09-12T13:48:32.384Z,67.50
2018-09-12T13:49:32.398Z,73.12
2018-09-12T13:50:32.363Z,73.12
2018-09-12T13:51:32.351Z,67.50
2018-09-12T13:52:32.338Z,73.12
2018-09-12T13:53:32.334Z,73.12
2018-09-12T13:54:32.328Z,67.50
2018-09-12T13:55:32.305Z,67.50
2018-09-12T13:56:32.306Z,67.50
2018-09-12T13:57:32.283Z,67.50
2018-09-12T13:58:32.271Z,67.50
2018-09-12T13:59:32.271Z,67.50
2018-09-12T14:00:32.249Z,67.50
2018-09-12T14:01:32.243Z,73.12
2018-09-12T14:02:32.226Z,78.75
2018-09-12T14:03:32.220Z,78.75
2018-09-12T14:04:32.218Z,73.12
2018-09-12T14:05:32.194Z,73.12
2018-09-12T14:06:32.183Z,73.12
2018-09-12T14:07:32.174Z,67.50
2018-09-12T14:08:32.162Z,67.50
2018-09-12T14:09:32.162Z,67.50
2018-09-12T14:10:32.141Z,67.50
2018-09-12T14:11:32.132Z,67.50
2018-09-12T14:12:32.115Z,67.50
2018-09-12T14:13:32.123Z,67.50
2018-09-12T14:14:32.108Z,67.50
2018-09-12T14:15:32.083Z,67.50
2018-09-12T14:16:32.071Z,67.50
2018-09-12T14:17:32.061Z,67.50
2018-09-12T14:18:32.048Z,67.50
2018-09-12T14:19:32.137Z,67.50
2018-09-12T14:20:32.033Z,67.50
2018-09-12T14:21:32.017Z,67.50
2018-09-12T14:22:32.005Z,67.50
2018-09-12T14:23:31.994Z,67.50
2018-09-12T14:24:31.995Z,67.50
2018-09-12T14:25:31.971Z,61.88
2018-09-12T14:26:31.961Z,61.88
2018-09-12T14:27:31.952Z,61.88
2018-09-12T14:28:31.938Z,61.88
2018-09-12T14:29:31.940Z,61.88
2018-09-12T14:30:31.923Z,61.88
2018-09-12T14:31:31.907Z,61.88
2018-09-12T14:32:31.894Z,61.88
2018-09-12T14:33:31.884Z,61.88
2018-09-12T14:34:31.883Z,61.88
2018-09-12T14:35:31.858Z,67.50
2018-09-12T14:36:31.850Z,67.50
2018-09-12T14:37:31.838Z,67.50
2018-09-12T14:38:31.827Z,61.88
2018-09-12T14:39:31.913Z,61.88
2018-09-12T14:40:31.805Z,61.88
2018-09-12T14:41:31.794Z,61.88
2018-09-12T14:42:31.786Z,61.88
2018-09-12T14:43:31.774Z,61.88
2018-09-12T14:44:31.774Z,56.25
2018-09-12T14:45:31.747Z,61.88
2018-09-12T14:46:31.738Z,61.88
2018-09-12T14:47:31.785Z,61.88
2018-09-12T14:48:31.717Z,61.88
2018-09-12T14:49:31.704Z,61.88
2018-09-12T14:50:31.707Z,61.88
2018-09-12T14:51:31.684Z,61.88
2018-09-12T14:52:31.671Z,61.88
2018-09-12T14:53:31.661Z,61.88
2018-09-12T14:54:31.672Z,56.25
2018-09-12T14:55:31.648Z,56.25
2018-09-12T14:56:31.629Z,56.25
2018-09-12T14:57:31.625Z,56.25
2018-09-12T14:58:31.604Z,56.25
2018-09-12T14:59:31.593Z,56.25
2018-09-12T15:00:31.595Z,56.25
2018-09-12T15:01:31.571Z,56.25
2018-09-12T15:02:31.561Z,56.25
2018-09-12T15:03:31.548Z,56.25
2018-09-12T15:04:31.538Z,56.25
2018-09-12T15:05:31.539Z,56.25
2018-09-12T15:06:31.516Z,56.25
2018-09-12T15:07:31.510Z,56.25
2018-09-12T15:08:31.493Z,56.25
2018-09-12T15:09:31.482Z,56.25
2018-09-12T15:10:31.542Z,56.25
2018-09-12T15:11:31.459Z,56.25
2018-09-12T15:12:31.451Z,56.25
2018-09-12T15:13:31.436Z,56.25
2018-09-12T15:14:31.425Z,56.25
2018-09-12T15:15:31.446Z,50.62
2018-09-12T15:16:31.416Z,56.25
2018-09-12T15:17:31.393Z,56.25
2018-09-12T15:18:31.382Z,56.25
2018-09-12T15:19:31.369Z,56.25
2018-09-12T15:20:31.370Z,56.25
2018-09-12T15:21:31.351Z,56.25
2018-09-12T15:22:31.341Z,56.25
2018-09-12T15:23:31.324Z,56.25
2018-09-12T15:24:31.315Z,56.25
2018-09-12T15:25:31.319Z,56.25
2018-09-12T15:26:31.300Z,50.62
2018-09-12T15:27:31.281Z,50.62
2018-09-12T15:28:31.284Z,50.62
2018-09-12T15:29:31.261Z,50.62
2018-09-12T15:30:31.259Z,50.62
2018-09-12T15:31:31.236Z,50.62
2018-09-12T15:32:31.260Z,50.62
2018-09-12T15:33:31.214Z,50.62
2018-09-12T15:34:31.204Z,50.62
2018-09-12T15:35:31.204Z,50.62
2018-09-12T15:36:31.185Z,50.62
2018-09-12T15:37:31.177Z,50.62
2018-09-12T15:38:31.162Z,50.62
2018-09-12T15:39:31.149Z,50.62
2018-09-12T15:40:31.159Z,50.62
2018-09-12T15:41:31.153Z,50.62
2018-09-12T15:42:31.117Z,50.62
2018-09-12T15:43:31.102Z,50.62
2018-09-12T15:44:31.092Z,50.62
2018-09-12T15:45:31.095Z,50.62
2018-09-12T15:46:31.069Z,50.62
2018-09-12T15:47:31.062Z,50.62
2018-09-12T15:48:31.047Z,50.62
2018-09-12T15:49:31.051Z,50.62
2018-09-12T15:50:31.040Z,45.00
2018-09-12T15:51:31.013Z,45.00
2018-09-12T15:52:31.006Z,45.00
2018-09-12T15:53:30.998Z,45.00
2018-09-12T15:54:30.984Z,45.00
2018-09-12T15:55:30.981Z,45.00
2018-09-12T15:56:30.959Z,45.00
2018-09-12T15:57:30.947Z,45.00
2018-09-12T15:58:30.939Z,45.00
2018-09-12T15:59:30.925Z,45.00
2018-09-12T16:00:30.927Z,45.00
2018-09-12T16:01:30.903Z,45.00
2018-09-12T16:02:30.931Z,45.00
2018-09-12T16:03:30.879Z,45.00
2018-09-12T16:04:30.868Z,45.00
2018-09-12T16:05:30.868Z,45.00
2018-09-12T16:06:30.850Z,45.00
2018-09-12T16:07:30.836Z,45.00
2018-09-12T16:08:30.826Z,45.00
2018-09-12T16:09:30.817Z,45.00
2018-09-12T16:10:30.827Z,45.00
2018-09-12T16:11:30.792Z,39.38
2018-09-12T16:12:30.781Z,45.00
2018-09-12T16:13:30.768Z,39.38
2018-09-12T16:14:30.759Z,39.38
2018-09-12T16:15:30.786Z,39.38
2018-09-12T16:16:30.736Z,39.38
2018-09-12T16:17:30.728Z,39.38
2018-09-12T16:18:30.713Z,39.38
2018-09-12T16:19:30.702Z,39.38
2018-09-12T16:20:30.709Z,39.38
2018-09-12T16:21:30.681Z,39.38
2018-09-12T16:22:30.669Z,39.38
2018-09-12T16:23:30.670Z,39.38
2018-09-12T16:24:30.648Z,39.38
2018-09-12T16:25:30.649Z,39.38
2018-09-12T16:26:30.627Z,39.38
2018-09-12T16:27:30.624Z,33.75
2018-09-12T16:28:30.608Z,33.75
2018-09-12T16:29:30.594Z,33.75
2018-09-12T16:30:30.613Z,33.75
2018-09-12T16:31:30.574Z,33.75
2018-09-12T16:32:30.584Z,33.75
2018-09-12T16:33:30.565Z,33.75
2018-09-12T16:34:30.539Z,33.75
2018-09-12T16:35:30.540Z,33.75
2018-09-12T16:36:30.568Z,33.75
2018-09-12T16:37:30.768Z,33.75
2018-09-12T16:38:30.720Z,33.75
2018-09-12T16:39:30.695Z,33.75
2018-09-12T16:40:30.788Z,33.75
2018-09-12T16:41:30.669Z,33.75
2018-09-12T16:42:30.602Z,33.75